createdAt,value
2018-11-02T00:00:20.927Z,1006.11
2018-11-02T00:01:20.898Z,1006.11
2018-11-02T00:02:20.909Z,1006.11
2018-11-02T00:03:20.920Z,1006.14
2018-11-02T00:04:20.932Z,1006.13
2018-11-02T00:05:20.944Z,1006.16
2018-11-02T00:06:20.992Z,1006.22
2018-11-02T00:07:20.972Z,1006.22
2018-11-02T00:08:21.007Z,1006.21
2018-11-02T00:09:20.990Z,1006.27
2018-11-02T00:10:21.001Z,1006.24
2018-11-02T00:11:21.021Z,1006.28
2018-11-02T00:12:21.044Z,1006.29
2018-11-02T00:13:21.138Z,1006.25
2018-11-02T00:15:21.765Z,1006.26
2018-11-02T00:16:21.787Z,1006.26
2018-11-02T00:17:21.085Z,1006.26
2018-11-02T00:18:21.097Z,1006.25
2018-11-02T00:19:21.110Z,1006.26
2018-11-02T00:20:21.122Z,1006.23
2018-11-02T00:21:21.133Z,1006.25
2018-11-02T00:22:21.153Z,1006.25
2018-11-02T00:23:21.155Z,1006.31
2018-11-02T00:24:21.167Z,1006.30
2018-11-02T00:25:21.180Z,1006.34
2018-11-02T00:26:21.191Z,1006.39
2018-11-02T00:27:21.212Z,1006.38
2018-11-02T00:28:21.214Z,1006.37
2018-11-02T00:29:21.230Z,1006.41
2018-11-02T00:30:21.237Z,1006.45
2018-11-02T00:31:21.248Z,1006.37
2018-11-02T00:32:21.322Z,1006.46
2018-11-02T00:33:21.274Z,1006.48
2018-11-02T00:34:21.287Z,1006.48
2018-11-02T00:35:21.299Z,1006.48
2018-11-02T00:36:21.308Z,1006.52
2018-11-02T00:37:21.326Z,1006.53
2018-11-02T00:38:21.333Z,1006.54
2018-11-02T00:39:21.349Z,1006.54
2018-11-02T00:40:21.356Z,1006.57
2018-11-02T00:41:21.365Z,1006.55
2018-11-02T00:42:21.381Z,1006.54
2018-11-02T00:43:21.389Z,1006.58
2018-11-02T00:44:21.407Z,1006.63
2018-11-02T00:45:21.419Z,1006.64
2018-11-02T00:46:21.427Z,1006.62
2018-11-02T00:47:21.544Z,1006.63
2018-11-02T00:48:21.452Z,1006.58
2018-11-02T00:49:21.573Z,1006.67
2018-11-02T00:51:21.483Z,1006.65
2018-11-02T00:52:21.498Z,1006.70
2018-11-02T00:53:21.509Z,1006.76
2018-11-02T00:54:21.520Z,1006.70
2018-11-02T00:55:21.532Z,1006.71
2018-11-02T00:56:21.545Z,1006.70
2018-11-02T00:57:21.558Z,1006.73
2018-11-02T00:58:21.565Z,1006.71
2018-11-02T00:59:21.580Z,1006.74
2018-11-02T01:00:21.593Z,1006.76
2018-11-02T01:01:21.606Z,1006.75
2018-11-02T01:02:21.613Z,1006.71
2018-11-02T01:03:21.625Z,1006.80
2018-11-02T01:04:21.639Z,1006.79
2018-11-02T01:05:21.649Z,1006.80
2018-11-02T01:06:21.677Z,1006.81
2018-11-02T01:07:21.673Z,1006.81
2018-11-02T01:09:21.699Z,1006.84
2018-11-02T01:10:21.707Z,1006.87
2018-11-02T01:11:21.755Z,1006.92
2018-11-02T01:12:21.732Z,1006.93
2018-11-02T01:13:22.114Z,1006.92
2018-11-02T01:14:21.793Z,1006.90
2018-11-02T01:16:21.821Z,1006.93
2018-11-02T01:17:21.863Z,1006.86
2018-11-02T01:21:21.863Z,1006.89
2018-11-02T01:22:21.848Z,1006.88
2018-11-02T01:23:21.860Z,1006.82
2018-11-02T01:24:21.873Z,1006.82
2018-11-02T01:25:21.890Z,1006.81
2018-11-02T01:26:21.918Z,1006.86
2018-11-02T01:27:21.916Z,1006.87
2018-11-02T01:28:21.936Z,1006.82
2018-11-02T01:29:21.932Z,1006.83
2018-11-02T01:30:21.942Z,1006.85
2018-11-02T01:31:21.956Z,1006.88
2018-11-02T01:32:21.974Z,1006.86
2018-11-02T01:33:21.988Z,1006.87
2018-11-02T01:34:22.005Z,1006.85
2018-11-02T01:35:22.001Z,1006.81
2018-11-02T01:36:22.013Z,1006.71
2018-11-02T01:37:22.032Z,1006.71
2018-11-02T01:38:22.037Z,1006.69
2018-11-02T01:39:22.050Z,1006.64
2018-11-02T01:40:22.066Z,1006.62
2018-11-02T01:41:22.073Z,1006.60
2018-11-02T01:42:22.084Z,1006.57
2018-11-02T01:43:22.098Z,1006.51
2018-11-02T01:44:22.109Z,1006.50
2018-11-02T01:45:22.123Z,1006.46
2018-11-02T01:46:22.181Z,1006.48
2018-11-02T01:47:22.724Z,1006.54
2018-11-02T01:48:22.294Z,1006.52
2018-11-02T01:49:22.216Z,1006.53
2018-11-02T01:50:22.178Z,1006.59
2018-11-02T01:52:22.740Z,1006.64
2018-11-02T01:53:22.309Z,1006.68
2018-11-02T01:54:22.225Z,1006.74
2018-11-02T01:55:22.240Z,1006.80
2018-11-02T01:56:22.249Z,1006.85
2018-11-02T01:57:22.260Z,1006.87
2018-11-02T01:58:22.275Z,1006.90
2018-11-02T01:59:22.283Z,1006.90
2018-11-02T02:00:22.296Z,1006.90
2018-11-02T02:01:22.311Z,1006.94
2018-11-02T02:02:22.320Z,1006.97
2018-11-02T02:03:22.331Z,1007.00
2018-11-02T02:04:22.345Z,1007.02
2018-11-02T02:05:22.352Z,1007.03
2018-11-02T02:06:22.363Z,1007.05
2018-11-02T02:07:22.378Z,1007.04
2018-11-02T02:08:22.415Z,1007.07
2018-11-02T02:09:22.400Z,1007.11
2018-11-02T02:10:22.450Z,1007.16
2018-11-02T02:11:22.428Z,1007.16
2018-11-02T02:12:22.437Z,1007.22
2018-11-02T02:13:22.634Z,1007.19
2018-11-02T02:14:22.459Z,1007.15
2018-11-02T02:15:22.475Z,1007.14
2018-11-02T02:16:22.485Z,1007.14
2018-11-02T02:17:22.495Z,1007.17
2018-11-02T02:18:22.513Z,1007.20
2018-11-02T02:19:22.608Z,1007.14
2018-11-02T02:20:22.533Z,1007.14
2018-11-02T02:21:22.665Z,1007.16
2018-11-02T02:24:22.662Z,1007.27
2018-11-02T02:25:22.589Z,1007.26
2018-11-02T02:26:22.601Z,1007.28
2018-11-02T02:27:22.612Z,1007.27
2018-11-02T02:28:22.622Z,1007.26
2018-11-02T02:29:22.635Z,1007.29
2018-11-02T02:30:22.663Z,1007.28
2018-11-02T02:31:22.663Z,1007.26
2018-11-02T02:32:22.670Z,1007.28
2018-11-02T02:33:22.727Z,1007.26
2018-11-02T02:34:22.693Z,1007.26
2018-11-02T02:35:22.710Z,1007.28
2018-11-02T02:36:22.717Z,1007.29
2018-11-02T02:37:22.731Z,1007.32
2018-11-02T02:38:22.781Z,1007.29
2018-11-02T02:39:22.774Z,1007.25
2018-11-02T02:40:22.783Z,1007.28
2018-11-02T02:41:22.780Z,1007.29
2018-11-02T02:42:22.785Z,1007.30
2018-11-02T02:43:22.797Z,1007.34
2018-11-02T02:44:22.814Z,1007.30
2018-11-02T02:45:22.823Z,1007.36
2018-11-02T02:46:22.844Z,1007.38
2018-11-02T02:47:22.852Z,1007.37
2018-11-02T02:48:22.859Z,1007.37
2018-11-02T02:49:22.870Z,1007.32
2018-11-02T02:50:22.885Z,1007.36
2018-11-02T02:51:22.911Z,1007.35
2018-11-02T02:53:23.017Z,1007.36
2018-11-02T02:54:23.145Z,1007.37
2018-11-02T02:56:23.458Z,1007.37
2018-11-02T02:57:22.964Z,1007.41
2018-11-02T02:58:22.972Z,1007.45
2018-11-02T02:59:22.986Z,1007.51
2018-11-02T03:00:23.008Z,1007.55
2018-11-02T03:01:23.014Z,1007.55
2018-11-02T03:02:23.028Z,1007.53
2018-11-02T03:03:23.055Z,1007.58
2018-11-02T03:04:23.069Z,1007.61
2018-11-02T03:05:23.056Z,1007.62
2018-11-02T03:06:23.066Z,1007.64
2018-11-02T03:07:23.080Z,1007.67
2018-11-02T03:08:23.101Z,1007.67
2018-11-02T03:09:23.103Z,1007.69
2018-11-02T03:10:23.171Z,1007.69
2018-11-02T03:11:23.127Z,1007.61
2018-11-02T03:12:23.138Z,1007.62
2018-11-02T03:13:23.151Z,1007.64
2018-11-02T03:14:23.163Z,1007.72
2018-11-02T03:15:23.173Z,1007.77
2018-11-02T03:16:23.188Z,1007.75
2018-11-02T03:17:23.204Z,1007.75
2018-11-02T03:18:23.299Z,1007.76
2018-11-02T03:19:23.222Z,1007.81
2018-11-02T03:20:23.592Z,1007.78
2018-11-02T03:21:23.245Z,1007.84
2018-11-02T03:22:23.270Z,1007.81
2018-11-02T03:23:23.267Z,1007.80
2018-11-02T03:24:23.328Z,1007.81
2018-11-02T03:25:23.350Z,1007.87
2018-11-02T03:26:23.500Z,1007.89
2018-11-02T03:27:23.771Z,1007.95
2018-11-02T03:28:23.768Z,1007.98
2018-11-02T03:29:23.339Z,1007.97
2018-11-02T03:30:23.356Z,1007.97
2018-11-02T03:31:23.360Z,1008.03
2018-11-02T03:32:23.473Z,1008.06
2018-11-02T03:33:23.482Z,1008.02
2018-11-02T03:34:23.769Z,1008.07
2018-11-02T03:35:23.418Z,1008.08
2018-11-02T03:36:23.417Z,1008.10
2018-11-02T03:37:23.428Z,1008.12
2018-11-02T03:38:23.443Z,1008.14
2018-11-02T03:39:23.447Z,1008.10
2018-11-02T03:40:23.469Z,1008.14
2018-11-02T03:41:23.470Z,1008.16
2018-11-02T03:42:23.481Z,1008.19
2018-11-02T03:43:23.494Z,1008.20
2018-11-02T03:44:23.514Z,1008.21
2018-11-02T03:45:23.519Z,1008.24
2018-11-02T03:46:23.531Z,1008.24
2018-11-02T03:47:23.542Z,1008.26
2018-11-02T03:48:23.553Z,1008.20
2018-11-02T03:49:23.601Z,1008.29
2018-11-02T03:50:23.582Z,1008.29
2018-11-02T03:51:23.588Z,1008.26
2018-11-02T03:52:23.600Z,1008.22
2018-11-02T03:53:23.645Z,1008.19
2018-11-02T03:54:23.640Z,1008.18
2018-11-02T03:55:23.636Z,1008.21
2018-11-02T03:56:23.657Z,1008.23
2018-11-02T03:57:23.661Z,1008.27
2018-11-02T03:59:23.682Z,1008.28
2018-11-02T04:00:24.318Z,1008.32
2018-11-02T04:01:24.365Z,1008.32
2018-11-02T04:02:23.729Z,1008.38
2018-11-02T04:03:23.729Z,1008.33
2018-11-02T04:04:23.741Z,1008.37
2018-11-02T04:06:23.769Z,1008.40
2018-11-02T04:07:23.780Z,1008.45
2018-11-02T04:08:23.788Z,1008.46
2018-11-02T04:09:23.842Z,1008.47
2018-11-02T04:10:23.810Z,1008.48
2018-11-02T04:11:23.827Z,1008.47
2018-11-02T04:12:23.835Z,1008.51
2018-11-02T04:13:23.849Z,1008.57
2018-11-02T04:14:23.859Z,1008.59
2018-11-02T04:15:23.873Z,1008.62
2018-11-02T04:16:23.884Z,1008.61
2018-11-02T04:17:23.900Z,1008.60
2018-11-02T04:18:23.973Z,1008.62
2018-11-02T04:19:23.915Z,1008.69
2018-11-02T04:20:23.929Z,1008.67
2018-11-02T04:21:23.945Z,1008.69
2018-11-02T04:22:23.999Z,1008.72
2018-11-02T04:23:23.970Z,1008.71
2018-11-02T04:24:23.975Z,1008.70
2018-11-02T04:25:24.050Z,1008.76
2018-11-02T04:26:24.011Z,1008.80
2018-11-02T04:27:24.046Z,1008.83
2018-11-02T04:28:24.581Z,1008.83
2018-11-02T04:29:24.255Z,1008.92
2018-11-02T04:31:24.823Z,1008.94
2018-11-02T04:32:24.070Z,1008.93
2018-11-02T04:33:24.082Z,1008.94
2018-11-02T04:34:24.130Z,1008.94
2018-11-02T04:35:24.104Z,1008.97
2018-11-02T04:36:24.116Z,1009.01
2018-11-02T04:37:24.134Z,1009.03
2018-11-02T04:38:24.141Z,1009.08
2018-11-02T04:39:24.159Z,1009.07
2018-11-02T04:40:24.169Z,1009.05
2018-11-02T04:41:24.191Z,1009.07
2018-11-02T04:42:24.186Z,1009.08
2018-11-02T04:43:24.504Z,1009.13
2018-11-02T04:44:24.209Z,1009.13
2018-11-02T04:45:24.221Z,1009.09
2018-11-02T04:46:24.239Z,1009.15
2018-11-02T04:47:24.246Z,1009.18
2018-11-02T04:48:24.323Z,1009.21
2018-11-02T04:49:24.316Z,1009.19
2018-11-02T04:50:24.279Z,1009.20
2018-11-02T04:51:24.295Z,1009.27
2018-11-02T04:52:24.367Z,1009.28
2018-11-02T04:53:24.646Z,1009.32
2018-11-02T04:54:24.328Z,1009.32
2018-11-02T04:55:24.343Z,1009.35
2018-11-02T04:56:24.353Z,1009.37
2018-11-02T04:57:24.362Z,1009.40
2018-11-02T04:58:24.382Z,1009.39
2018-11-02T04:59:24.391Z,1009.41
2018-11-02T05:03:24.926Z,1009.52
2018-11-02T05:04:24.445Z,1009.60
2018-11-02T05:05:24.457Z,1009.62
2018-11-02T05:06:24.468Z,1009.74
2018-11-02T05:07:24.479Z,1009.78
2018-11-02T05:08:24.493Z,1009.77
2018-11-02T05:09:24.505Z,1009.83
2018-11-02T05:10:24.516Z,1009.87
2018-11-02T05:11:24.712Z,1009.95
2018-11-02T05:12:24.878Z,1009.94
2018-11-02T05:13:24.553Z,1009.96
2018-11-02T05:14:24.565Z,1009.94
2018-11-02T05:15:24.623Z,1010.03
2018-11-02T05:16:24.686Z,1010.00
2018-11-02T05:17:24.619Z,1010.02
2018-11-02T05:18:24.609Z,1010.08
2018-11-02T05:19:24.620Z,1010.11
2018-11-02T05:20:24.641Z,1010.08
2018-11-02T05:21:24.701Z,1010.11
2018-11-02T05:22:24.657Z,1010.17
2018-11-02T05:23:24.700Z,1010.17
2018-11-02T05:24:24.679Z,1010.17
2018-11-02T05:25:24.694Z,1010.17
2018-11-02T05:26:24.756Z,1010.16
2018-11-02T05:27:24.802Z,1010.25
2018-11-02T05:28:24.730Z,1010.19
2018-11-02T05:29:24.754Z,1010.24
2018-11-02T05:30:24.804Z,1010.27
2018-11-02T05:31:24.770Z,1010.27
2018-11-02T05:32:24.781Z,1010.28
2018-11-02T05:35:25.166Z,1010.33
2018-11-02T05:36:25.147Z,1010.35
2018-11-02T05:37:24.831Z,1010.37
2018-11-02T05:38:24.846Z,1010.41
2018-11-02T05:39:24.869Z,1010.47
2018-11-02T05:40:24.868Z,1010.54
2018-11-02T05:41:24.877Z,1010.59
2018-11-02T05:42:24.903Z,1010.60
2018-11-02T05:43:24.904Z,1010.64
2018-11-02T05:44:24.911Z,1010.70
2018-11-02T05:45:24.924Z,1010.67
2018-11-02T05:46:24.941Z,1010.66
2018-11-02T05:47:25.037Z,1010.74
2018-11-02T05:48:24.960Z,1010.74
2018-11-02T05:49:24.974Z,1010.74
2018-11-02T05:50:25.038Z,1010.73
2018-11-02T05:51:24.993Z,1010.73
2018-11-02T05:52:25.018Z,1010.77
2018-11-02T05:53:25.016Z,1010.77
2018-11-02T05:54:25.212Z,1010.81
2018-11-02T05:55:25.042Z,1010.89
2018-11-02T05:56:25.099Z,1010.89
2018-11-02T05:57:25.067Z,1010.90
2018-11-02T05:58:25.075Z,1010.95
2018-11-02T05:59:25.085Z,1010.94
2018-11-02T06:00:25.103Z,1011.02
2018-11-02T06:01:25.202Z,1011.07
2018-11-02T06:02:25.123Z,1011.08
2018-11-02T06:04:25.151Z,1011.15
2018-11-02T06:05:25.456Z,1011.17
2018-11-02T06:07:25.314Z,1011.21
2018-11-02T06:08:25.206Z,1011.23
2018-11-02T06:09:25.266Z,1011.24
2018-11-02T06:10:25.212Z,1011.27
2018-11-02T06:11:25.226Z,1011.28
2018-11-02T06:12:25.242Z,1011.28
2018-11-02T06:13:25.262Z,1011.32
2018-11-02T06:14:25.264Z,1011.37
2018-11-02T06:15:25.291Z,1011.42
2018-11-02T06:16:25.295Z,1011.44
2018-11-02T06:17:25.292Z,1011.49
2018-11-02T06:18:25.303Z,1011.49
2018-11-02T06:19:25.316Z,1011.50
2018-11-02T06:20:25.333Z,1011.53
2018-11-02T06:21:25.338Z,1011.53
2018-11-02T06:22:25.350Z,1011.52
2018-11-02T06:23:25.362Z,1011.55
2018-11-02T06:24:25.528Z,1011.52
2018-11-02T06:25:25.388Z,1011.56
2018-11-02T06:26:25.396Z,1011.56
2018-11-02T06:27:25.416Z,1011.57
2018-11-02T06:28:25.454Z,1011.62
2018-11-02T06:29:25.439Z,1011.65
2018-11-02T06:30:25.493Z,1011.62
2018-11-02T06:31:25.458Z,1011.66
2018-11-02T06:32:25.546Z,1011.67
2018-11-02T06:33:25.503Z,1011.75
2018-11-02T06:34:25.783Z,1011.76
2018-11-02T06:35:25.501Z,1011.83
2018-11-02T06:37:25.667Z,1011.86
2018-11-02T06:38:26.002Z,1011.89
2018-11-02T06:39:25.556Z,1011.91
2018-11-02T06:40:25.559Z,1011.98
2018-11-02T06:41:25.573Z,1011.96
2018-11-02T06:42:25.581Z,1011.96
2018-11-02T06:43:25.602Z,1012.01
2018-11-02T06:44:25.685Z,1012.02
2018-11-02T06:46:25.633Z,1012.05
2018-11-02T06:47:25.641Z,1012.13
2018-11-02T06:48:25.651Z,1012.12
2018-11-02T06:49:25.666Z,1012.15
2018-11-02T06:50:25.673Z,1012.12
2018-11-02T06:52:25.696Z,1012.16
2018-11-02T06:53:25.708Z,1012.21
2018-11-02T06:54:25.725Z,1012.28
2018-11-02T06:55:25.734Z,1012.28
2018-11-02T06:56:25.761Z,1012.29
2018-11-02T06:57:25.754Z,1012.32
2018-11-02T06:58:25.763Z,1012.34
2018-11-02T06:59:25.963Z,1012.36
2018-11-02T07:00:25.878Z,1012.39
2018-11-02T07:01:25.800Z,1012.41
2018-11-02T07:02:25.818Z,1012.46
2018-11-02T07:03:25.822Z,1012.47
2018-11-02T07:04:25.840Z,1012.53
2018-11-02T07:05:25.846Z,1012.55
2018-11-02T07:06:25.875Z,1012.59
2018-11-02T07:07:26.003Z,1012.62
2018-11-02T07:08:25.976Z,1012.69
2018-11-02T07:09:25.923Z,1012.65
2018-11-02T07:10:26.310Z,1012.74
2018-11-02T07:11:25.924Z,1012.75
2018-11-02T07:12:25.945Z,1012.84
2018-11-02T07:13:25.965Z,1012.83
2018-11-02T07:14:25.956Z,1012.86
2018-11-02T07:15:25.999Z,1012.85
2018-11-02T07:16:26.051Z,1012.90
2018-11-02T07:17:25.988Z,1012.92
2018-11-02T07:18:26.120Z,1012.91
2018-11-02T07:19:26.031Z,1012.88
2018-11-02T07:20:26.020Z,1012.93
2018-11-02T07:21:26.032Z,1012.95
2018-11-02T07:22:26.046Z,1012.99
2018-11-02T07:23:26.085Z,1013.00
2018-11-02T07:24:26.229Z,1013.04
2018-11-02T07:25:26.076Z,1013.09
2018-11-02T07:26:26.091Z,1013.09
2018-11-02T07:27:26.114Z,1013.08
2018-11-02T07:28:26.115Z,1013.17
2018-11-02T07:29:26.508Z,1013.14
2018-11-02T07:30:26.133Z,1013.10
2018-11-02T07:31:26.170Z,1013.17
2018-11-02T07:32:26.162Z,1013.19
2018-11-02T07:33:26.171Z,1013.17
2018-11-02T07:34:26.250Z,1013.21
2018-11-02T07:35:26.289Z,1013.17
2018-11-02T07:36:26.227Z,1013.22
2018-11-02T07:37:26.259Z,1013.26
2018-11-02T07:38:26.233Z,1013.24
2018-11-02T07:39:26.239Z,1013.31
2018-11-02T07:40:26.252Z,1013.33
2018-11-02T07:41:26.277Z,1013.35
2018-11-02T07:42:26.321Z,1013.35
2018-11-02T07:43:26.347Z,1013.37
2018-11-02T07:44:27.064Z,1013.43
2018-11-02T07:45:26.313Z,1013.46
2018-11-02T07:46:26.323Z,1013.41
2018-11-02T07:47:26.338Z,1013.46
2018-11-02T07:48:26.348Z,1013.48
2018-11-02T07:49:26.447Z,1013.51
2018-11-02T07:50:26.378Z,1013.52
2018-11-02T07:51:26.380Z,1013.51
2018-11-02T07:52:26.391Z,1013.49
2018-11-02T07:53:26.399Z,1013.56
2018-11-02T07:54:26.414Z,1013.57
2018-11-02T07:55:26.427Z,1013.62
2018-11-02T07:56:26.440Z,1013.66
2018-11-02T07:57:26.463Z,1013.64
2018-11-02T07:58:26.547Z,1013.63
2018-11-02T07:59:26.508Z,1013.68
2018-11-02T08:00:26.557Z,1013.69
2018-11-02T08:01:26.501Z,1013.71
2018-11-02T08:02:26.505Z,1013.77
2018-11-02T08:03:26.554Z,1013.80
2018-11-02T08:04:26.532Z,1013.83
2018-11-02T08:05:26.546Z,1013.84
2018-11-02T08:06:26.552Z,1013.83
2018-11-02T08:08:27.441Z,1013.84
2018-11-02T08:09:26.608Z,1013.82
2018-11-02T08:10:26.596Z,1013.78
2018-11-02T08:11:26.693Z,1013.77
2018-11-02T08:12:26.619Z,1013.81
2018-11-02T08:14:26.795Z,1013.83
2018-11-02T08:15:26.762Z,1013.84
2018-11-02T08:16:26.664Z,1013.86
2018-11-02T08:17:26.773Z,1013.85
2018-11-02T08:19:26.701Z,1013.90
2018-11-02T08:21:26.926Z,1013.92
2018-11-02T08:22:27.110Z,1013.93
2018-11-02T08:23:26.792Z,1013.96
2018-11-02T08:24:26.783Z,1013.98
2018-11-02T08:25:26.820Z,1013.98
2018-11-02T08:26:26.837Z,1013.97
2018-11-02T08:27:26.897Z,1013.92
2018-11-02T08:28:26.835Z,1013.99
2018-11-02T08:30:26.846Z,1014.01
2018-11-02T08:31:26.845Z,1014.03
2018-11-02T08:32:26.857Z,1014.02
2018-11-02T08:33:26.865Z,1014.04
2018-11-02T08:34:26.897Z,1014.01
2018-11-02T08:35:26.965Z,1014.07
2018-11-02T08:36:26.913Z,1014.09
2018-11-02T08:37:26.917Z,1014.10
2018-11-02T08:38:26.935Z,1014.10
2018-11-02T08:39:26.943Z,1014.13
2018-11-02T08:40:26.980Z,1014.12
2018-11-02T08:41:26.976Z,1014.11
2018-11-02T08:42:27.012Z,1014.16
2018-11-02T08:43:26.993Z,1014.19
2018-11-02T08:44:27.035Z,1014.15
2018-11-02T08:45:27.010Z,1014.20
2018-11-02T08:46:27.045Z,1014.21
2018-11-02T08:47:27.033Z,1014.18
2018-11-02T08:48:27.043Z,1014.27
2018-11-02T08:49:27.082Z,1014.30
2018-11-02T08:50:27.542Z,1014.26
2018-11-02T08:51:27.129Z,1014.28
2018-11-02T08:53:27.111Z,1014.27
2018-11-02T08:54:27.137Z,1014.32
2018-11-02T08:55:27.127Z,1014.37
2018-11-02T08:56:27.145Z,1014.39
2018-11-02T08:57:27.152Z,1014.43
2018-11-02T08:58:27.423Z,1014.44
2018-11-02T08:59:27.318Z,1014.38
2018-11-02T09:00:27.199Z,1014.40
2018-11-02T09:01:27.199Z,1014.47
2018-11-02T09:02:27.209Z,1014.41
2018-11-02T09:03:27.220Z,1014.47
2018-11-02T09:04:27.233Z,1014.51
2018-11-02T09:05:27.245Z,1014.50
2018-11-02T09:06:27.259Z,1014.51
2018-11-02T09:08:27.284Z,1014.59
2018-11-02T09:09:27.291Z,1014.58
2018-11-02T09:10:27.315Z,1014.59
2018-11-02T09:11:27.316Z,1014.62
2018-11-02T09:12:27.329Z,1014.59
2018-11-02T09:13:27.341Z,1014.62
2018-11-02T09:14:27.350Z,1014.63
2018-11-02T09:15:27.363Z,1014.59
2018-11-02T09:16:27.375Z,1014.60
2018-11-02T09:17:27.384Z,1014.58
2018-11-02T09:18:27.576Z,1014.63
2018-11-02T09:19:27.523Z,1014.61
2018-11-02T09:20:27.427Z,1014.68
2018-11-02T09:21:27.749Z,1014.63
2018-11-02T09:22:27.445Z,1014.67
2018-11-02T09:23:27.580Z,1014.73
2018-11-02T09:25:27.481Z,1014.73
2018-11-02T09:26:27.602Z,1014.78
2018-11-02T09:27:27.544Z,1014.80
2018-11-02T09:28:27.524Z,1014.79
2018-11-02T09:29:27.540Z,1014.80
2018-11-02T09:30:27.550Z,1014.85
2018-11-02T09:31:27.551Z,1014.85
2018-11-02T09:32:27.563Z,1014.88
2018-11-02T09:33:27.578Z,1014.88
2018-11-02T09:34:27.584Z,1014.89
2018-11-02T09:35:27.601Z,1014.90
2018-11-02T09:36:28.960Z,1014.93
2018-11-02T09:37:27.623Z,1014.87
2018-11-02T09:38:30.012Z,1014.88
2018-11-02T09:39:28.800Z,1014.91
2018-11-02T09:40:27.730Z,1014.91
2018-11-02T09:41:27.670Z,1014.90
2018-11-02T09:42:27.707Z,1014.93
2018-11-02T09:43:27.695Z,1014.98
2018-11-02T09:44:27.944Z,1015.05
2018-11-02T09:45:28.424Z,1015.09
2018-11-02T09:46:27.734Z,1015.09
2018-11-02T09:47:27.755Z,1015.15
2018-11-02T09:48:27.774Z,1015.17
2018-11-02T09:49:27.766Z,1015.18
2018-11-02T09:50:27.778Z,1015.22
2018-11-02T09:51:27.842Z,1015.17
2018-11-02T09:52:27.805Z,1015.23
2018-11-02T09:53:27.833Z,1015.15
2018-11-02T09:54:27.851Z,1015.27
2018-11-02T09:55:27.855Z,1015.21
2018-11-02T09:56:28.231Z,1015.17
2018-11-02T09:57:27.957Z,1015.18
2018-11-02T09:59:28.308Z,1015.26
2018-11-02T10:01:27.915Z,1015.36
2018-11-02T10:02:27.932Z,1015.40
2018-11-02T10:03:27.952Z,1015.38
2018-11-02T10:04:27.953Z,1015.50
2018-11-02T10:05:27.989Z,1015.48
2018-11-02T10:06:27.989Z,1015.53
2018-11-02T10:07:27.988Z,1015.53
2018-11-02T10:08:28.031Z,1015.56
2018-11-02T10:09:28.016Z,1015.61
2018-11-02T10:10:28.031Z,1015.59
2018-11-02T10:11:28.037Z,1015.66
2018-11-02T10:12:28.051Z,1015.69
2018-11-02T10:13:28.066Z,1015.66
2018-11-02T10:14:28.074Z,1015.68
2018-11-02T10:15:28.089Z,1015.73
2018-11-02T10:16:28.100Z,1015.76
2018-11-02T10:17:28.111Z,1015.71
2018-11-02T10:18:28.123Z,1015.73
2018-11-02T10:19:28.140Z,1015.73
2018-11-02T10:20:28.148Z,1015.74
2018-11-02T10:21:28.161Z,1015.79
2018-11-02T10:22:28.170Z,1015.77
2018-11-02T10:23:28.197Z,1015.73
2018-11-02T10:24:28.210Z,1015.73
2018-11-02T10:25:28.212Z,1015.76
2018-11-02T10:26:28.225Z,1015.77
2018-11-02T10:27:28.233Z,1015.74
2018-11-02T10:28:28.247Z,1015.81
2018-11-02T10:29:28.438Z,1015.80
2018-11-02T10:30:28.269Z,1015.79
2018-11-02T10:31:28.309Z,1015.77
2018-11-02T10:32:28.290Z,1015.78
2018-11-02T10:33:28.319Z,1015.81
2018-11-02T10:34:28.319Z,1015.86
2018-11-02T10:35:28.338Z,1015.85
2018-11-02T10:36:28.342Z,1015.87
2018-11-02T10:37:28.365Z,1015.83
2018-11-02T10:38:28.372Z,1015.91
2018-11-02T10:39:28.457Z,1015.89
2018-11-02T10:40:28.385Z,1015.89
2018-11-02T10:41:28.399Z,1015.90
2018-11-02T10:42:28.413Z,1015.88
2018-11-02T10:43:28.425Z,1015.90
2018-11-02T10:44:28.638Z,1015.92
2018-11-02T10:45:28.539Z,1015.91
2018-11-02T10:46:28.469Z,1015.94
2018-11-02T10:47:28.481Z,1015.97
2018-11-02T10:48:28.482Z,1016.01
2018-11-02T10:49:28.597Z,1016.03
2018-11-02T10:50:28.507Z,1016.06
2018-11-02T10:51:28.533Z,1016.06
2018-11-02T10:52:28.535Z,1016.05
2018-11-02T10:53:28.547Z,1016.12
2018-11-02T10:54:28.673Z,1016.12
2018-11-02T10:55:28.566Z,1016.14
2018-11-02T10:56:30.088Z,1016.18
2018-11-02T10:57:30.160Z,1016.20
2018-11-02T10:58:28.637Z,1016.22
2018-11-02T10:59:28.617Z,1016.26
2018-11-02T11:00:28.689Z,1016.29
2018-11-02T11:01:28.900Z,1016.27
2018-11-02T11:02:28.698Z,1016.32
2018-11-02T11:03:28.675Z,1016.37
2018-11-02T11:04:28.679Z,1016.36
2018-11-02T11:05:28.781Z,1016.45
2018-11-02T11:06:28.704Z,1016.39
2018-11-02T11:07:28.716Z,1016.36
2018-11-02T11:08:28.734Z,1016.41
2018-11-02T11:09:28.794Z,1016.38
2018-11-02T11:10:28.759Z,1016.40
2018-11-02T11:11:28.774Z,1016.42
2018-11-02T11:12:28.964Z,1016.38
2018-11-02T11:13:29.054Z,1016.37
2018-11-02T11:14:28.805Z,1016.38
2018-11-02T11:15:28.835Z,1016.42
2018-11-02T11:16:28.836Z,1016.39
2018-11-02T11:17:28.841Z,1016.41
2018-11-02T11:18:28.857Z,1016.45
2018-11-02T11:19:28.873Z,1016.41
2018-11-02T11:20:28.879Z,1016.45
2018-11-02T11:21:28.959Z,1016.47
2018-11-02T11:22:28.910Z,1016.48
2018-11-02T11:23:28.913Z,1016.51
2018-11-02T11:24:28.929Z,1016.49
2018-11-02T11:25:29.009Z,1016.51
2018-11-02T11:26:28.952Z,1016.56
2018-11-02T11:27:28.964Z,1016.58
2018-11-02T11:28:28.971Z,1016.59
2018-11-02T11:29:33.519Z,1016.62
2018-11-02T11:30:29.639Z,1016.65
2018-11-02T11:31:29.045Z,1016.64
2018-11-02T11:32:29.017Z,1016.76
2018-11-02T11:33:29.036Z,1016.70
2018-11-02T11:34:29.047Z,1016.73
2018-11-02T11:35:29.067Z,1016.77
2018-11-02T11:36:29.854Z,1016.74
2018-11-02T11:37:29.167Z,1016.74
2018-11-02T11:38:29.091Z,1016.74
2018-11-02T11:39:29.159Z,1016.75
2018-11-02T11:40:29.117Z,1016.75
2018-11-02T11:41:29.498Z,1016.75
2018-11-02T11:42:29.135Z,1016.77
2018-11-02T11:43:29.163Z,1016.73
2018-11-02T11:44:29.161Z,1016.75
2018-11-02T11:45:29.188Z,1016.78
2018-11-02T11:46:29.191Z,1016.77
2018-11-02T11:47:29.205Z,1016.86
2018-11-02T11:48:29.262Z,1016.81
2018-11-02T11:49:29.785Z,1016.84
2018-11-02T11:50:30.110Z,1016.81
2018-11-02T11:51:29.249Z,1016.79
2018-11-02T11:52:29.255Z,1016.76
2018-11-02T11:53:29.290Z,1016.77
2018-11-02T11:54:34.098Z,1016.76
2018-11-02T11:55:29.407Z,1016.80
2018-11-02T11:56:29.325Z,1016.78
2018-11-02T11:57:29.318Z,1016.83
2018-11-02T11:58:30.243Z,1016.85
2018-11-02T11:59:29.585Z,1016.80
2018-11-02T12:00:29.361Z,1016.87
2018-11-02T12:01:29.365Z,1016.86
2018-11-02T12:02:29.447Z,1016.88
2018-11-02T12:03:29.400Z,1016.86
2018-11-02T12:04:30.056Z,1016.87
2018-11-02T12:06:30.472Z,1016.86
2018-11-02T12:07:29.446Z,1016.87
2018-11-02T12:08:29.483Z,1016.85
2018-11-02T12:09:29.463Z,1016.86
2018-11-02T12:10:33.726Z,1016.86
2018-11-02T12:11:29.694Z,1016.83
2018-11-02T12:12:29.501Z,1016.82
2018-11-02T12:13:29.511Z,1016.82
2018-11-02T12:14:29.567Z,1016.83
2018-11-02T12:15:29.556Z,1016.84
2018-11-02T12:16:29.551Z,1016.85
2018-11-02T12:17:29.584Z,1016.88
2018-11-02T12:18:29.581Z,1016.91
2018-11-02T12:19:29.886Z,1016.92
2018-11-02T12:20:29.598Z,1016.96
2018-11-02T12:21:29.611Z,1016.97
2018-11-02T12:22:29.624Z,1016.96
2018-11-02T12:23:29.698Z,1016.97
2018-11-02T12:24:29.663Z,1017.01
2018-11-02T12:25:29.660Z,1016.99
2018-11-02T12:26:29.669Z,1017.02
2018-11-02T12:27:29.826Z,1017.07
2018-11-02T12:28:29.738Z,1017.06
2018-11-02T12:29:29.851Z,1017.08
2018-11-02T12:30:29.721Z,1017.10
2018-11-02T12:31:29.781Z,1017.09
2018-11-02T12:32:29.742Z,1017.09
2018-11-02T12:33:29.758Z,1017.11
2018-11-02T12:34:29.796Z,1017.12
2018-11-02T12:35:29.780Z,1017.08
2018-11-02T12:36:34.234Z,1017.10
2018-11-02T12:37:29.809Z,1017.11
2018-11-02T12:38:33.776Z,1017.09
2018-11-02T12:39:30.123Z,1017.06
2018-11-02T12:40:29.911Z,1017.06
2018-11-02T12:41:29.860Z,1017.04